createdAt,value
2018-10-06T00:01:28.191Z,9.83
2018-10-06T00:03:56.164Z,11.48
2018-10-06T00:06:24.019Z,10.48
2018-10-06T00:08:52.184Z,12.10
2018-10-06T00:11:20.257Z,12.00
2018-10-06T00:13:48.737Z,10.65
2018-10-06T00:16:16.591Z,11.18
2018-10-06T00:18:46.621Z,12.13
2018-10-06T00:21:14.594Z,11.10
2018-10-06T00:23:42.828Z,11.83
2018-10-06T00:26:10.870Z,10.25
2018-10-06T00:28:38.784Z,11.65
2018-10-06T00:31:07.036Z,11.10
2018-10-06T00:33:35.435Z,11.22
2018-10-06T00:36:03.751Z,11.18
2018-10-06T00:38:33.048Z,10.60
2018-10-06T00:41:01.004Z,10.08
2018-10-06T00:43:29.220Z,9.83
2018-10-06T00:45:57.288Z,9.13
2018-10-06T00:48:25.298Z,9.95
2018-10-06T00:50:53.276Z,9.53
2018-10-06T00:53:21.427Z,11.53
2018-10-06T00:55:51.684Z,9.70
2018-10-06T00:58:19.735Z,9.93
2018-10-06T01:00:47.823Z,11.10
2018-10-06T01:03:15.768Z,10.30
2018-10-06T01:05:44.072Z,11.15
2018-10-06T01:08:12.331Z,10.88
2018-10-06T01:10:40.397Z,11.30
2018-10-06T01:13:08.484Z,9.85
2018-10-06T01:15:36.540Z,10.53
2018-10-06T01:18:04.631Z,10.10
2018-10-06T01:20:32.699Z,10.23
2018-10-06T01:23:00.740Z,10.45
2018-10-06T01:25:28.724Z,10.25
2018-10-06T01:27:56.900Z,11.00
2018-10-06T01:30:24.999Z,10.90
2018-10-06T01:32:52.984Z,10.43
2018-10-06T01:35:21.180Z,10.50
2018-10-06T01:37:49.683Z,10.90
2018-10-06T01:40:17.915Z,11.30
2018-10-06T01:42:45.971Z,10.72
2018-10-06T01:45:13.725Z,11.43
2018-10-06T01:47:41.923Z,10.48
2018-10-06T01:50:09.759Z,11.18
2018-10-06T01:52:38.055Z,10.88
2018-10-06T01:55:06.327Z,10.32
2018-10-06T01:57:34.396Z,11.80
2018-10-06T02:00:02.374Z,10.35
2018-10-06T02:02:30.532Z,10.28
2018-10-06T02:04:58.678Z,10.90
2018-10-06T02:07:26.972Z,10.60
2018-10-06T02:09:54.952Z,11.45
2018-10-06T02:12:23.100Z,12.23
2018-10-06T02:14:51.089Z,11.30
2018-10-06T02:17:19.316Z,11.88
2018-10-06T02:19:47.308Z,10.58
2018-10-06T02:22:15.380Z,11.12
2018-10-06T02:24:43.371Z,11.85
2018-10-06T02:27:11.524Z,10.95
2018-10-06T02:29:39.625Z,11.55
2018-10-06T02:32:07.787Z,11.65
2018-10-06T02:34:35.705Z,11.40
2018-10-06T02:37:03.827Z,12.85
2018-10-06T02:39:31.905Z,12.28
2018-10-06T02:42:00.281Z,11.63
2018-10-06T02:44:29.256Z,11.95
2018-10-06T02:46:57.473Z,12.80
2018-10-06T02:49:25.832Z,11.15
2018-10-06T02:51:53.796Z,12.35
2018-10-06T02:54:21.778Z,13.28
2018-10-06T02:56:49.988Z,12.43
2018-10-06T02:59:18.411Z,12.85
2018-10-06T03:01:46.191Z,14.15
2018-10-06T03:04:14.495Z,15.50
2018-10-06T03:06:42.436Z,16.35
2018-10-06T03:09:11.016Z,13.88
2018-10-06T03:11:39.273Z,15.50
2018-10-06T03:14:07.374Z,14.63
2018-10-06T03:16:35.400Z,16.07
2018-10-06T03:19:03.480Z,16.45
2018-10-06T03:21:31.555Z,16.77
2018-10-06T03:24:01.781Z,17.37
2018-10-06T03:26:29.907Z,16.32
2018-10-06T03:28:57.976Z,16.37
2018-10-06T03:31:26.053Z,15.70
2018-10-06T03:33:54.068Z,16.05
2018-10-06T03:36:22.464Z,17.15
2018-10-06T03:38:50.508Z,15.68
2018-10-06T03:41:18.501Z,16.30
2018-10-06T03:43:46.719Z,16.82
2018-10-06T03:46:16.002Z,17.15
2018-10-06T03:48:43.778Z,16.40
2018-10-06T03:51:12.453Z,16.50
2018-10-06T03:53:40.845Z,18.40
2018-10-06T03:56:09.845Z,17.07
2018-10-06T03:58:38.272Z,16.42
2018-10-06T04:01:06.497Z,16.62
2018-10-06T04:03:34.944Z,17.32
2018-10-06T04:06:03.284Z,17.07
2018-10-06T04:08:31.797Z,17.15
2018-10-06T04:11:00.153Z,16.90
2018-10-06T04:13:28.299Z,17.40
2018-10-06T04:15:56.348Z,17.07
2018-10-06T04:18:24.264Z,17.25
2018-10-06T04:20:52.264Z,18.62
2018-10-06T04:23:20.238Z,17.60
2018-10-06T04:25:48.745Z,18.00
2018-10-06T04:28:17.239Z,16.30
2018-10-06T04:30:45.571Z,17.85
2018-10-06T04:33:14.336Z,14.53
2018-10-06T04:35:42.834Z,14.47
2018-10-06T04:38:11.978Z,15.15
2018-10-06T04:40:40.280Z,14.10
2018-10-06T04:43:08.496Z,17.25
2018-10-06T04:45:36.848Z,17.23
2018-10-06T04:48:06.262Z,15.88
2018-10-06T04:50:35.767Z,20.20
2018-10-06T04:53:04.038Z,14.45
2018-10-06T04:55:32.436Z,17.73
2018-10-06T04:58:01.215Z,19.82
2018-10-06T05:00:29.592Z,21.15
2018-10-06T05:02:59.453Z,19.70
2018-10-06T05:05:27.619Z,18.80
2018-10-06T05:07:56.216Z,20.25
2018-10-06T05:10:23.972Z,18.05
2018-10-06T05:12:51.958Z,20.10
2018-10-06T05:15:20.121Z,18.73
2018-10-06T05:17:48.108Z,19.82
2018-10-06T05:20:15.863Z,14.05
2018-10-06T05:22:43.971Z,12.20
2018-10-06T05:25:11.735Z,12.30
2018-10-06T05:27:40.300Z,11.55
2018-10-06T05:30:08.797Z,11.00
2018-10-06T05:32:37.449Z,11.30
2018-10-06T05:35:06.025Z,11.25
2018-10-06T05:37:34.400Z,12.03
2018-10-06T05:40:02.929Z,10.90
2018-10-06T05:42:31.280Z,10.45
2018-10-06T05:44:59.587Z,9.38
2018-10-06T05:47:27.889Z,10.35
2018-10-06T05:49:55.993Z,9.53
2018-10-06T05:52:24.002Z,10.10
2018-10-06T05:54:52.052Z,9.60
2018-10-06T05:57:19.931Z,10.85
2018-10-06T05:59:48.005Z,11.57
2018-10-06T06:02:15.848Z,9.90
2018-10-06T06:04:44.836Z,9.25
2018-10-06T06:07:12.987Z,10.15
2018-10-06T06:09:41.675Z,9.53
2018-10-06T06:12:10.065Z,10.08
2018-10-06T06:14:38.614Z,10.43
2018-10-06T06:17:08.305Z,10.35
2018-10-06T06:19:37.215Z,9.83
2018-10-06T06:22:05.388Z,9.85
2018-10-06T06:24:33.411Z,9.68
2018-10-06T06:27:01.494Z,12.78
2018-10-06T06:29:29.476Z,10.90
2018-10-06T06:31:57.500Z,11.03
2018-10-06T06:34:26.092Z,10.05
2018-10-06T06:36:54.499Z,10.03
2018-10-06T06:39:22.640Z,10.90
2018-10-06T06:41:51.120Z,9.80
2018-10-06T06:44:19.681Z,10.60
2018-10-06T06:46:48.387Z,11.43
2018-10-06T06:49:16.729Z,12.07
2018-10-06T06:51:44.939Z,10.33
2018-10-06T06:54:13.178Z,9.50
2018-10-06T06:56:41.554Z,9.63
2018-10-06T06:59:09.721Z,9.77
2018-10-06T07:01:38.315Z,9.83
2018-10-06T07:04:06.524Z,9.90
2018-10-06T07:06:34.562Z,9.27
2018-10-06T07:09:03.092Z,11.27
2018-10-06T07:11:31.415Z,10.27
2018-10-06T07:13:59.536Z,8.83
2018-10-06T07:16:28.361Z,10.77
2018-10-06T07:18:56.933Z,9.47
2018-10-06T07:21:26.148Z,9.40
2018-10-06T07:23:55.663Z,9.83
2018-10-06T07:26:24.096Z,9.97
2018-10-06T07:28:52.092Z,9.13
2018-10-06T07:31:20.064Z,9.63
2018-10-06T07:33:47.929Z,13.33
2018-10-06T07:36:15.741Z,11.30
2018-10-06T07:38:43.699Z,13.97
2018-10-06T07:41:11.750Z,8.73
2018-10-06T07:43:40.396Z,11.27
2018-10-06T07:46:08.577Z,10.80
2018-10-06T07:48:37.310Z,11.77
2018-10-06T07:51:05.832Z,11.13
2018-10-06T07:53:34.253Z,9.43
2018-10-06T07:56:03.020Z,8.77
2018-10-06T07:58:31.492Z,8.50
2018-10-06T08:00:59.903Z,7.80
2018-10-06T08:03:28.302Z,8.90
2018-10-06T08:05:56.386Z,7.80
2018-10-06T08:08:24.390Z,8.63
2018-10-06T08:10:52.471Z,7.87
2018-10-06T08:13:20.450Z,9.90
2018-10-06T08:15:48.915Z,7.97
2018-10-06T08:18:17.268Z,7.30
2018-10-06T08:20:45.403Z,8.90
2018-10-06T08:23:14.627Z,7.80
2018-10-06T08:25:42.920Z,8.00
2018-10-06T08:28:11.319Z,7.33
2018-10-06T08:30:39.828Z,7.87
2018-10-06T08:33:08.183Z,8.47
2018-10-06T08:35:36.684Z,6.77
2018-10-06T08:38:04.621Z,7.43
2018-10-06T08:40:32.717Z,8.20
2018-10-06T08:43:00.777Z,7.00
2018-10-06T08:45:28.996Z,7.30
2018-10-06T08:47:57.022Z,8.17
2018-10-06T08:50:25.048Z,7.50
2018-10-06T08:52:52.792Z,8.10
2018-10-06T08:55:21.179Z,7.20
2018-10-06T08:57:49.262Z,9.33
2018-10-06T09:00:17.765Z,7.83
2018-10-06T09:02:45.666Z,7.00
2018-10-06T09:05:14.512Z,7.20
2018-10-06T09:07:42.930Z,6.40
2018-10-06T09:10:12.408Z,7.40
2018-10-06T09:12:40.999Z,6.87
2018-10-06T09:15:09.726Z,7.57
2018-10-06T09:17:37.853Z,7.50
2018-10-06T09:20:05.848Z,6.50
2018-10-06T09:22:34.337Z,6.97
2018-10-06T09:25:02.331Z,6.53
2018-10-06T09:27:30.144Z,7.00
2018-10-06T09:29:58.540Z,6.57
2018-10-06T09:32:26.811Z,6.40
2018-10-06T09:34:54.976Z,6.50
2018-10-06T09:37:24.485Z,6.00
2018-10-06T09:39:53.082Z,5.80
2018-10-06T09:47:08.785Z,6.67
2018-10-06T09:49:37.680Z,6.20
2018-10-06T09:52:06.285Z,6.90
2018-10-06T09:54:34.368Z,7.13
2018-10-06T09:57:03.281Z,6.43
2018-10-06T09:59:31.565Z,7.00
2018-10-06T10:02:05.399Z,6.17
2018-10-06T10:04:33.707Z,6.30
2018-10-06T10:07:01.447Z,6.80
2018-10-06T10:09:29.505Z,6.87
2018-10-06T10:11:58.193Z,7.00
2018-10-06T10:14:26.380Z,6.00
2018-10-06T10:16:54.718Z,6.33
2018-10-06T10:19:23.063Z,6.30
2018-10-06T10:21:51.710Z,6.10
2018-10-06T10:24:20.180Z,5.70
2018-10-06T10:26:48.865Z,6.50
2018-10-06T10:29:17.163Z,6.60
2018-10-06T10:31:45.457Z,5.83
2018-10-06T10:34:13.948Z,6.63
2018-10-06T10:36:42.422Z,6.10
2018-10-06T10:39:10.412Z,6.50
2018-10-06T10:41:38.231Z,6.30
2018-10-06T10:44:06.324Z,6.40
2018-10-06T10:46:34.275Z,7.43
2018-10-06T10:49:02.323Z,6.97
2018-10-06T10:51:30.303Z,7.23
2018-10-06T10:53:58.724Z,7.10
2018-10-06T10:56:27.119Z,7.60
2018-10-06T10:58:56.304Z,7.00
2018-10-06T11:01:24.420Z,7.73
2018-10-06T11:03:52.641Z,8.63
2018-10-06T11:06:21.252Z,7.27
2018-10-06T11:08:49.542Z,6.97
2018-10-06T11:11:18.912Z,6.63
2018-10-06T11:13:46.932Z,7.10
2018-10-06T11:16:14.948Z,7.30
2018-10-06T11:18:42.962Z,7.27
2018-10-06T11:21:10.930Z,6.97
2018-10-06T11:23:38.919Z,7.53
2018-10-06T11:26:08.952Z,6.87
2018-10-06T11:28:37.802Z,6.80
2018-10-06T11:31:06.397Z,8.10
2018-10-06T11:33:34.853Z,8.90
2018-10-06T11:36:03.405Z,11.87
2018-10-06T11:38:31.712Z,11.50
2018-10-06T11:40:59.991Z,11.63
2018-10-06T11:43:28.384Z,14.03
2018-10-06T11:45:56.431Z,13.23
2018-10-06T11:48:24.206Z,15.00
2018-10-06T11:50:52.040Z,11.70
2018-10-06T11:53:20.000Z,10.80
2018-10-06T11:55:47.979Z,7.80
2018-10-06T11:58:16.252Z,7.67
2018-10-06T12:00:44.299Z,7.00
2018-10-06T12:03:12.954Z,6.07
2018-10-06T12:05:41.358Z,6.07
2018-10-06T12:08:10.216Z,6.03
2018-10-06T12:10:38.780Z,7.17
2018-10-06T12:13:07.115Z,6.20
2018-10-06T12:15:36.022Z,7.07
2018-10-06T12:18:04.443Z,7.90
2018-10-06T12:20:33.165Z,8.40
2018-10-06T12:23:01.124Z,10.10
2018-10-06T12:25:29.089Z,8.90
2018-10-06T12:27:57.107Z,15.03
2018-10-06T12:30:25.173Z,16.07
2018-10-06T12:32:53.156Z,9.70
2018-10-06T12:35:22.689Z,7.93
2018-10-06T12:37:51.430Z,6.77
2018-10-06T12:40:20.623Z,6.70
2018-10-06T12:42:49.038Z,6.60
2018-10-06T12:45:16.822Z,6.70
2018-10-06T12:47:44.611Z,5.70
2018-10-06T12:50:12.794Z,6.23
2018-10-06T12:52:40.912Z,7.03
2018-10-06T12:55:09.506Z,5.57
2018-10-06T12:57:37.803Z,6.50
2018-10-06T13:00:06.117Z,7.27
2018-10-06T13:02:34.636Z,5.97
2018-10-06T13:05:03.938Z,7.20
2018-10-06T13:07:32.373Z,6.50
2018-10-06T13:10:00.388Z,7.40
2018-10-06T13:12:28.856Z,7.00
2018-10-06T13:14:57.265Z,5.93
2018-10-06T13:17:25.419Z,5.87
2018-10-06T13:19:53.839Z,5.97
2018-10-06T13:22:22.619Z,6.40
2018-10-06T13:24:51.105Z,7.13
2018-10-06T13:27:19.547Z,7.07
2018-10-06T13:29:48.581Z,6.90
2018-10-06T13:32:16.321Z,6.00
2018-10-06T13:34:44.287Z,6.10
2018-10-06T13:37:13.164Z,8.33
2018-10-06T13:39:41.653Z,7.53
2018-10-06T13:42:10.084Z,6.73
2018-10-06T13:44:38.809Z,7.37
2018-10-06T13:47:07.277Z,6.50
2018-10-06T13:49:36.254Z,5.17
2018-10-06T13:52:04.736Z,5.90
2018-10-06T13:54:32.875Z,5.77
2018-10-06T13:57:01.432Z,5.93
2018-10-06T13:59:29.213Z,5.03
2018-10-06T14:01:57.223Z,6.37
2018-10-06T14:04:25.324Z,5.60
2018-10-06T14:06:53.422Z,5.57
2018-10-06T14:09:21.367Z,5.83
2018-10-06T14:11:49.383Z,5.50
2018-10-06T14:14:18.008Z,6.67
2018-10-06T14:16:46.359Z,5.80
2018-10-06T14:19:15.973Z,6.10
2018-10-06T14:21:44.353Z,5.90
2018-10-06T14:24:12.637Z,5.43
2018-10-06T14:26:41.085Z,6.83
2018-10-06T14:29:09.463Z,5.30
2018-10-06T14:31:37.556Z,5.10
2018-10-06T14:34:06.306Z,6.20
2018-10-06T14:36:34.344Z,5.93
2018-10-06T14:39:03.236Z,6.17
2018-10-06T14:41:31.332Z,7.97
2018-10-06T14:43:59.989Z,16.13
2018-10-06T14:46:28.386Z,10.20
2018-10-06T14:48:56.626Z,7.50
2018-10-06T14:51:25.299Z,5.57
2018-10-06T14:53:53.717Z,6.77
2018-10-06T14:56:22.183Z,5.57
2018-10-06T14:58:50.642Z,6.17
2018-10-06T15:01:18.839Z,5.83
2018-10-06T15:03:47.049Z,6.63
2018-10-06T15:06:15.607Z,6.20
2018-10-06T15:08:43.596Z,6.20
2018-10-06T15:11:11.359Z,7.20
2018-10-06T15:13:39.178Z,7.90
2018-10-06T15:16:07.276Z,7.57
2018-10-06T15:18:34.973Z,7.67
2018-10-06T15:21:02.972Z,7.27
2018-10-06T15:23:30.981Z,14.00
2018-10-06T15:25:58.976Z,8.10
2018-10-06T15:28:27.427Z,8.63
2018-10-06T15:30:55.619Z,9.23
2018-10-06T15:33:24.899Z,10.10
2018-10-06T15:35:53.863Z,9.55
2018-10-06T15:38:22.353Z,9.65
2018-10-06T15:40:50.876Z,9.95
2018-10-06T15:43:19.324Z,10.03
2018-10-06T15:45:47.766Z,11.43
2018-10-06T15:48:16.059Z,10.50
2018-10-06T15:50:44.121Z,9.80
2018-10-06T15:53:12.167Z,9.45
2018-10-06T15:55:40.212Z,10.05
2018-10-06T15:58:08.168Z,9.43
2018-10-06T16:00:36.054Z,9.50
2018-10-06T16:03:04.532Z,9.85
2018-10-06T16:05:32.496Z,10.75
2018-10-06T16:08:01.016Z,12.37
2018-10-06T16:10:29.014Z,9.95
2018-10-06T16:12:57.061Z,10.00
2018-10-06T16:15:25.899Z,11.03
2018-10-06T16:17:53.892Z,10.35
2018-10-06T16:20:21.954Z,11.57
2018-10-06T16:22:49.834Z,12.07
2018-10-06T16:25:17.844Z,11.35
2018-10-06T16:27:45.610Z,10.90
2018-10-06T16:30:14.152Z,10.82
2018-10-06T16:32:42.663Z,11.90
2018-10-06T16:35:10.463Z,12.63
2018-10-06T16:37:38.256Z,11.97
2018-10-06T16:40:06.080Z,11.33
2018-10-06T16:42:34.080Z,12.70
2018-10-06T16:45:02.119Z,11.53
2018-10-06T16:47:30.080Z,12.28
2018-10-06T16:49:58.147Z,11.75
2018-10-06T16:52:26.173Z,12.80
2018-10-06T16:54:54.217Z,13.00
2018-10-06T16:57:22.293Z,13.70
2018-10-06T16:59:50.270Z,15.20
2018-10-06T17:02:18.634Z,16.55
2018-10-06T17:04:46.731Z,15.08
2018-10-06T17:07:15.099Z,15.40
2018-10-06T17:09:43.114Z,15.08
2018-10-06T17:12:11.145Z,14.33
2018-10-06T17:14:38.904Z,13.98
2018-10-06T17:17:07.179Z,15.58
2018-10-06T17:19:34.968Z,14.93
2018-10-06T17:22:02.955Z,15.30
2018-10-06T17:24:31.417Z,13.35
2018-10-06T17:26:59.395Z,14.40
2018-10-06T17:29:27.437Z,13.32
2018-10-06T17:31:55.644Z,13.53
2018-10-06T17:34:24.014Z,14.20
2018-10-06T17:36:52.076Z,12.93
2018-10-06T17:39:20.165Z,13.25
2018-10-06T17:41:48.169Z,13.18
2018-10-06T17:44:16.315Z,13.43
2018-10-06T17:46:44.252Z,12.60
2018-10-06T17:49:12.283Z,13.65
2018-10-06T17:51:40.636Z,12.80
2018-10-06T17:54:09.207Z,12.18
2018-10-06T17:56:37.205Z,12.13
2018-10-06T17:59:05.278Z,11.60
2018-10-06T18:01:33.299Z,12.40
2018-10-06T18:04:01.044Z,11.83
2018-10-06T18:06:29.415Z,12.75
2018-10-06T18:08:57.408Z,13.95
2018-10-06T18:11:25.670Z,13.80
2018-10-06T18:13:53.683Z,13.90
2018-10-06T18:16:21.924Z,14.20
2018-10-06T18:18:49.876Z,14.55
2018-10-06T18:21:17.987Z,13.80
2018-10-06T18:23:46.752Z,14.73
2018-10-06T18:26:15.037Z,15.20
2018-10-06T18:28:43.745Z,16.67
2018-10-06T18:31:11.709Z,16.35
2018-10-06T18:33:39.693Z,18.07
2018-10-06T18:36:08.012Z,19.82
2018-10-06T18:38:36.532Z,19.23
2018-10-06T18:41:04.742Z,19.20
2018-10-06T18:43:32.632Z,18.05
2018-10-06T18:46:00.346Z,16.48
2018-10-06T18:48:28.331Z,17.80
2018-10-06T18:50:56.114Z,17.12
2018-10-06T18:53:23.893Z,18.52
2018-10-06T18:55:51.868Z,17.10
2018-10-06T18:58:19.905Z,17.95
2018-10-06T19:00:47.650Z,18.27
2018-10-06T19:03:15.884Z,18.35
2018-10-06T19:05:43.821Z,17.25
2018-10-06T19:08:11.955Z,19.95
2018-10-06T19:10:40.394Z,17.92
2018-10-06T19:13:08.351Z,18.17
2018-10-06T19:15:36.249Z,17.48
2018-10-06T19:18:04.216Z,17.25
2018-10-06T19:20:32.193Z,15.63
2018-10-06T19:23:00.343Z,16.20
2018-10-06T19:25:28.391Z,16.12
2018-10-06T19:27:57.474Z,16.85
2018-10-06T19:30:25.241Z,16.52
2018-10-06T19:32:53.726Z,17.15
2018-10-06T19:35:21.680Z,15.43
2018-10-06T19:37:49.462Z,15.63
2018-10-06T19:40:17.508Z,17.50
2018-10-06T19:42:45.531Z,22.70
2018-10-06T19:45:13.552Z,28.25
2018-10-06T19:47:41.546Z,33.83
2018-10-06T19:50:10.139Z,33.30
2018-10-06T19:52:37.940Z,32.78
2018-10-06T19:55:05.688Z,29.72
2018-10-06T19:57:33.855Z,25.37
2018-10-06T20:00:01.820Z,22.73
2018-10-06T20:02:29.787Z,20.40
2018-10-06T20:04:58.155Z,17.75
2018-10-06T20:07:25.996Z,16.02
2018-10-06T20:09:53.975Z,15.75
2018-10-06T20:12:21.788Z,15.35
2018-10-06T20:14:49.755Z,15.32
2018-10-06T20:17:17.775Z,15.23
2018-10-06T20:19:45.543Z,15.00
2018-10-06T20:22:13.738Z,15.72
2018-10-06T20:24:41.784Z,14.78
2018-10-06T20:27:09.949Z,15.53
2018-10-06T20:29:37.750Z,14.80
2018-10-06T20:32:06.090Z,15.23
2018-10-06T20:34:34.157Z,15.48
2018-10-06T20:37:02.223Z,15.13
2018-10-06T20:39:30.193Z,15.10
2018-10-06T20:41:58.484Z,15.80
2018-10-06T20:44:26.431Z,16.37
2018-10-06T20:46:54.425Z,15.23
2018-10-06T20:49:22.507Z,17.23
2018-10-06T20:51:50.764Z,14.98
2018-10-06T20:54:18.560Z,16.62
2018-10-06T20:56:46.762Z,16.40
2018-10-06T20:59:15.236Z,15.83
2018-10-06T21:01:43.023Z,17.23
2018-10-06T21:04:10.919Z,16.85
2018-10-06T21:06:38.940Z,17.87
2018-10-06T21:09:10.188Z,18.00
2018-10-06T21:11:38.280Z,16.37
2018-10-06T21:14:06.406Z,16.85
2018-10-06T21:16:34.799Z,16.82
2018-10-06T21:19:02.794Z,17.57
2018-10-06T21:21:30.778Z,18.10
2018-10-06T21:23:58.763Z,18.37
2018-10-06T21:26:27.104Z,18.07
2018-10-06T21:28:56.342Z,17.25
2018-10-06T21:31:25.181Z,17.27
2018-10-06T21:33:53.415Z,17.92
2018-10-06T21:36:21.413Z,16.70
2018-10-06T21:38:49.551Z,17.23
2018-10-06T21:41:17.509Z,16.82
2018-10-06T21:43:45.476Z,16.65
2018-10-06T21:46:14.024Z,16.65
2018-10-06T21:48:41.971Z,15.90
2018-10-06T21:51:09.823Z,17.17
2018-10-06T21:53:37.797Z,16.90
2018-10-06T21:56:05.823Z,17.98
2018-10-06T21:58:33.815Z,17.30
2018-10-06T22:01:07.319Z,19.32
2018-10-06T22:03:35.360Z,17.70
2018-10-06T22:06:03.512Z,18.87
2018-10-06T22:08:31.606Z,19.02
2018-10-06T22:10:59.644Z,18.57
2018-10-06T22:13:27.971Z,20.82
2018-10-06T22:15:56.063Z,18.92
2018-10-06T22:18:24.079Z,20.10
2018-10-06T22:20:52.111Z,21.15
2018-10-06T22:23:20.120Z,23.00
2018-10-06T22:25:48.522Z,21.45
2018-10-06T22:28:16.759Z,20.48
2018-10-06T22:30:44.715Z,21.93
2018-10-06T22:33:12.532Z,20.77
2018-10-06T22:35:40.676Z,20.40
2018-10-06T22:38:08.643Z,20.60
2018-10-06T22:40:36.391Z,20.85
2018-10-06T22:43:04.665Z,19.62
2018-10-06T22:45:32.704Z,21.40
2018-10-06T22:48:00.724Z,21.10
2018-10-06T22:50:28.722Z,19.05
2018-10-06T22:52:56.841Z,20.88
2018-10-06T22:55:25.069Z,22.45
2018-10-06T22:57:53.001Z,20.27
2018-10-06T23:00:21.100Z,19.77
2018-10-06T23:02:49.054Z,21.30
2018-10-06T23:05:17.229Z,22.27
2018-10-06T23:07:45.283Z,21.82
2018-10-06T23:10:13.294Z,20.77
2018-10-06T23:12:41.505Z,21.77
2018-10-06T23:15:09.305Z,20.65
2018-10-06T23:17:37.384Z,22.52
2018-10-06T23:20:05.172Z,20.40
2018-10-06T23:22:32.969Z,20.00
2018-10-06T23:25:00.827Z,19.67
2018-10-06T23:27:28.839Z,20.90
2018-10-06T23:29:56.912Z,21.00
2018-10-06T23:32:24.881Z,20.50
2018-10-06T23:34:52.875Z,20.12
2018-10-06T23:37:20.912Z,19.20
2018-10-06T23:39:49.269Z,20.35
2018-10-06T23:42:17.276Z,17.85
2018-10-06T23:44:45.219Z,17.62
2018-10-06T23:47:13.276Z,19.80
2018-10-06T23:49:41.338Z,19.07
2018-10-06T23:52:09.324Z,19.85
2018-10-06T23:54:38.344Z,19.02
2018-10-06T23:57:06.313Z,19.37
2018-10-06T23:59:34.102Z,20.15
